createdAt,value
2022-11-09T00:04:41.974Z,28.17
2022-11-09T00:09:45.562Z,30.67
2022-11-09T00:20:22.566Z,49.40
2022-11-09T00:25:26.323Z,35.63
2022-11-09T00:30:29.855Z,25.43
2022-11-09T00:35:33.417Z,34.37
2022-11-09T00:40:36.934Z,50.43
2022-11-09T00:45:43.924Z,55.13
2022-11-09T00:50:51.976Z,37.50
2022-11-09T00:55:59.589Z,35.17
2022-11-09T01:01:12.807Z,29.07
2022-11-09T01:06:22.339Z,29.60
2022-11-09T01:11:26.186Z,30.07
2022-11-09T01:16:30.505Z,23.37
2022-11-09T01:21:33.933Z,28.67
2022-11-09T01:26:37.723Z,35.97
2022-11-09T01:31:43.444Z,35.87
2022-11-09T01:36:46.963Z,44.97
2022-11-09T01:41:50.594Z,46.50
2022-11-09T01:47:12.018Z,39.23
2022-11-09T01:52:20.266Z,45.20
2022-11-09T01:57:30.577Z,44.87
2022-11-09T02:02:35.064Z,42.77
2022-11-09T02:07:40.980Z,42.20
2022-11-09T02:12:46.477Z,38.53
2022-11-09T02:17:54.275Z,48.83
2022-11-09T02:22:58.114Z,44.13
2022-11-09T02:28:01.757Z,40.93
2022-11-09T02:33:05.265Z,55.83
2022-11-09T02:38:15.393Z,49.17
2022-11-09T02:43:20.365Z,48.30
2022-11-09T02:48:24.154Z,44.40
2022-11-09T02:53:27.854Z,50.07
2022-11-09T02:58:31.186Z,45.50
2022-11-09T03:03:34.665Z,44.77
2022-11-09T03:08:38.205Z,44.67
2022-11-09T03:13:41.814Z,44.77
2022-11-09T03:18:45.206Z,38.27
2022-11-09T03:23:49.414Z,45.27
2022-11-09T03:28:53.240Z,40.23
2022-11-09T03:33:56.694Z,41.17
2022-11-09T03:39:00.184Z,41.43
2022-11-09T03:44:04.345Z,38.23
2022-11-09T03:49:07.873Z,42.07
2022-11-09T03:54:11.595Z,42.10
2022-11-09T03:59:15.162Z,43.23
2022-11-09T04:04:19.257Z,38.30
2022-11-09T04:09:22.885Z,36.83
2022-11-09T04:14:26.475Z,37.67
2022-11-09T04:19:30.046Z,41.07
2022-11-09T04:24:33.732Z,40.87
2022-11-09T04:29:37.153Z,35.43
2022-11-09T04:34:42.176Z,35.57
2022-11-09T04:39:45.744Z,39.77
2022-11-09T04:44:49.505Z,37.03
2022-11-09T04:49:53.483Z,41.50
2022-11-09T04:54:56.968Z,37.57
2022-11-09T05:00:00.887Z,41.00
2022-11-09T05:05:04.900Z,38.90
2022-11-09T05:10:09.238Z,41.13
2022-11-09T05:15:12.998Z,35.60
2022-11-09T05:20:17.120Z,37.63
2022-11-09T05:25:20.618Z,39.73
2022-11-09T05:30:24.239Z,43.43
2022-11-09T05:35:28.006Z,39.93
2022-11-09T05:40:32.959Z,37.60
2022-11-09T05:45:42.545Z,36.53
2022-11-09T05:50:46.810Z,37.13
2022-11-09T05:55:50.808Z,38.90
2022-11-09T06:00:54.308Z,41.50
2022-11-09T06:06:08.039Z,41.63
2022-11-09T06:11:18.294Z,41.20
2022-11-09T06:16:27.058Z,38.67
2022-11-09T06:21:31.259Z,40.50
2022-11-09T06:26:38.117Z,37.90
2022-11-09T06:31:43.468Z,43.40
2022-11-09T06:36:47.290Z,38.87
2022-11-09T06:41:51.149Z,38.77
2022-11-09T06:46:54.517Z,38.73
2022-11-09T06:51:57.998Z,39.40
2022-11-09T06:57:02.923Z,42.87
2022-11-09T07:02:06.091Z,39.67
2022-11-09T07:07:09.817Z,45.07
2022-11-09T07:12:13.619Z,38.57
2022-11-09T07:17:17.576Z,39.43
2022-11-09T07:22:21.508Z,43.67
2022-11-09T07:27:28.146Z,41.97
2022-11-09T07:33:02.540Z,43.83
2022-11-09T07:38:03.291Z,43.53
2022-11-09T07:43:07.638Z,39.67
2022-11-09T07:48:13.208Z,46.73
2022-11-09T07:53:17.977Z,42.97
2022-11-09T07:58:21.798Z,40.33
2022-11-09T08:03:26.180Z,50.23
2022-11-09T08:08:29.658Z,43.67
2022-11-09T08:13:33.727Z,40.13
2022-11-09T08:18:37.227Z,37.67
2022-11-09T08:23:41.534Z,39.93
2022-11-09T08:28:45.088Z,43.27
2022-11-09T08:33:48.902Z,40.67
2022-11-09T08:38:52.146Z,38.83
2022-11-09T08:43:55.728Z,40.67
2022-11-09T08:49:02.836Z,35.10
2022-11-09T08:54:11.997Z,31.63
2022-11-09T08:59:15.868Z,34.27
2022-11-09T09:04:19.446Z,34.57
2022-11-09T09:09:23.023Z,31.10
2022-11-09T09:14:27.383Z,30.10
2022-11-09T09:19:30.535Z,33.00
2022-11-09T09:24:34.327Z,33.57
2022-11-09T09:29:38.311Z,35.07
2022-11-09T09:34:42.238Z,36.30
2022-11-09T09:39:45.736Z,29.57
2022-11-09T09:45:03.358Z,33.43
2022-11-09T09:50:13.409Z,31.20
2022-11-09T09:55:21.038Z,32.57
2022-11-09T10:00:28.170Z,36.30
2022-11-09T10:06:13.532Z,31.27
2022-11-09T10:11:47.615Z,31.07
2022-11-09T10:17:02.239Z,32.83
2022-11-09T10:22:24.062Z,30.40
2022-11-09T10:27:40.455Z,31.27
2022-11-09T10:32:52.961Z,28.67
2022-11-09T10:37:56.561Z,31.63
2022-11-09T10:43:02.458Z,30.87
2022-11-09T10:48:08.564Z,30.47
2022-11-09T10:53:26.237Z,26.60
2022-11-09T10:58:46.316Z,26.47
2022-11-09T11:03:55.553Z,28.87
2022-11-09T11:08:58.816Z,28.67
2022-11-09T11:14:23.326Z,32.37
2022-11-09T11:19:35.527Z,32.37
2022-11-09T11:24:59.139Z,30.23
2022-11-09T11:30:05.752Z,28.20
2022-11-09T11:35:27.547Z,30.80
2022-11-09T11:40:38.873Z,27.90
2022-11-09T11:45:44.072Z,33.10
2022-11-09T11:50:53.358Z,29.83
2022-11-09T11:56:35.366Z,34.83
2022-11-09T12:01:48.495Z,27.90
2022-11-09T12:06:55.011Z,28.83
2022-11-09T12:12:26.785Z,29.10
2022-11-09T12:17:44.616Z,30.27
2022-11-09T12:23:08.573Z,25.43
2022-11-09T12:28:28.837Z,30.83
2022-11-09T12:33:53.109Z,30.27
2022-11-09T12:39:05.633Z,33.90
2022-11-09T12:44:35.328Z,33.77
2022-11-09T12:49:41.748Z,30.13
2022-11-09T12:54:49.446Z,28.67
2022-11-09T12:59:58.689Z,32.53
2022-11-09T13:05:04.600Z,29.27
2022-11-09T13:10:29.238Z,37.40
2022-11-09T13:15:37.845Z,35.30
2022-11-09T13:20:59.209Z,38.90
2022-11-09T13:26:04.116Z,35.47
2022-11-09T13:31:10.867Z,36.63
2022-11-09T13:36:19.158Z,42.10
2022-11-09T13:41:34.454Z,38.70
2022-11-09T13:46:40.092Z,38.87
2022-11-09T13:51:47.474Z,38.87
2022-11-09T13:56:51.864Z,34.63
2022-11-09T14:02:03.092Z,35.03
2022-11-09T14:07:27.087Z,36.67
2022-11-09T14:13:04.428Z,38.93
2022-11-09T14:18:39.668Z,37.93
2022-11-09T14:23:42.845Z,44.67
2022-11-09T14:28:46.055Z,41.63
2022-11-09T14:34:03.255Z,42.07
2022-11-09T14:39:28.098Z,43.27
2022-11-09T14:44:40.890Z,46.60
2022-11-09T14:49:46.571Z,49.70
2022-11-09T14:54:50.803Z,47.60
2022-11-09T14:59:55.691Z,51.20
2022-11-09T15:05:02.053Z,51.20
2022-11-09T15:10:20.762Z,55.87
2022-11-09T15:15:30.429Z,49.27
2022-11-09T15:20:35.268Z,39.00
2022-11-09T15:25:47.632Z,44.27
2022-11-09T15:31:13.376Z,45.07
2022-11-09T15:36:25.808Z,50.67
2022-11-09T15:41:30.273Z,45.87
2022-11-09T15:46:37.358Z,50.97
2022-11-09T15:51:41.012Z,44.87
2022-11-09T15:56:46.180Z,43.37
2022-11-09T16:01:49.740Z,46.83
2022-11-09T16:06:53.317Z,42.77
2022-11-09T16:11:58.189Z,57.53
2022-11-09T16:17:03.300Z,61.60
2022-11-09T16:22:09.107Z,57.20
2022-11-09T16:27:22.377Z,52.27
2022-11-09T16:32:37.163Z,48.33
2022-11-09T16:37:41.899Z,46.67
2022-11-09T16:42:45.709Z,50.83
2022-11-09T16:47:53.179Z,46.67
2022-11-09T16:52:58.452Z,51.70
2022-11-09T16:58:02.908Z,45.40
2022-11-09T17:03:08.128Z,40.70
2022-11-09T17:08:14.098Z,48.57
2022-11-09T17:13:17.545Z,43.27
2022-11-09T17:18:21.682Z,52.50
2022-11-09T17:23:32.480Z,45.63
2022-11-09T17:28:42.707Z,48.27
2022-11-09T17:33:47.428Z,57.47
2022-11-09T17:38:50.819Z,53.00
2022-11-09T17:43:54.956Z,54.90
2022-11-09T17:48:58.697Z,51.23
2022-11-09T17:54:04.568Z,53.03
2022-11-09T17:59:09.346Z,49.90
2022-11-09T18:04:13.941Z,49.00
2022-11-09T18:14:43.416Z,48.70
2022-11-09T18:19:48.117Z,56.67
2022-11-09T18:24:52.153Z,60.37
2022-11-09T18:29:59.629Z,58.00
2022-11-09T18:35:04.784Z,53.20
2022-11-09T18:40:10.094Z,54.73
2022-11-09T18:45:17.047Z,63.73
2022-11-09T18:50:22.786Z,54.60
2022-11-09T18:55:27.299Z,53.77
2022-11-09T19:00:32.337Z,51.77
2022-11-09T19:05:41.648Z,48.83
2022-11-09T19:10:47.109Z,47.83
2022-11-09T19:15:55.672Z,54.30
2022-11-09T19:21:02.789Z,52.33
2022-11-09T19:26:10.089Z,58.47
2022-11-09T19:31:19.717Z,69.17
2022-11-09T19:36:31.196Z,75.50
2022-11-09T19:41:36.888Z,54.67
2022-11-09T19:46:43.089Z,57.87
2022-11-09T19:51:47.704Z,61.10
2022-11-09T19:56:52.257Z,63.40
2022-11-09T20:01:57.438Z,59.07
2022-11-09T20:07:02.981Z,58.30
2022-11-09T20:12:29.286Z,70.13
2022-11-09T20:17:34.303Z,60.53
2022-11-09T20:22:40.858Z,65.57
2022-11-09T20:27:45.789Z,60.80
2022-11-09T20:32:50.216Z,57.07
2022-11-09T20:37:55.615Z,65.57
2022-11-09T20:43:01.099Z,65.43
2022-11-09T20:48:19.363Z,59.30
2022-11-09T20:53:40.079Z,71.30
2022-11-09T20:58:44.519Z,63.40
2022-11-09T21:03:50.007Z,72.53
2022-11-09T21:08:56.497Z,67.60
2022-11-09T21:14:00.448Z,59.07
2022-11-09T21:19:04.978Z,64.80
2022-11-09T21:24:28.921Z,59.67
2022-11-09T21:29:51.888Z,60.10
2022-11-09T21:34:55.590Z,69.67
2022-11-09T21:39:59.020Z,63.07
2022-11-09T21:45:02.482Z,61.70
2022-11-09T21:50:11.279Z,56.70
2022-11-09T21:55:15.909Z,53.93
2022-11-09T22:00:19.687Z,49.23
2022-11-09T22:05:23.384Z,49.57
2022-11-09T22:10:27.159Z,51.63
2022-11-09T22:15:49.246Z,54.33
2022-11-09T22:20:55.455Z,52.70
2022-11-09T22:26:02.441Z,46.43
2022-11-09T22:31:08.007Z,46.50
2022-11-09T22:36:13.555Z,59.43
2022-11-09T22:41:17.527Z,54.57
2022-11-09T22:46:21.485Z,60.63
2022-11-09T22:51:24.957Z,63.53
2022-11-09T22:56:28.316Z,60.67
2022-11-09T23:01:31.970Z,53.37
2022-11-09T23:06:35.487Z,54.10
2022-11-09T23:11:38.927Z,56.07
2022-11-09T23:16:42.246Z,53.77
2022-11-09T23:21:48.587Z,53.67
2022-11-09T23:26:52.051Z,49.67
2022-11-09T23:31:57.833Z,49.93
2022-11-09T23:37:01.239Z,58.70
2022-11-09T23:42:04.672Z,46.27
2022-11-09T23:47:07.938Z,49.00
2022-11-09T23:52:12.051Z,44.30
2022-11-09T23:57:15.607Z,46.23
